Time;durP1;ratioP1;P1;durP2;ratioP2;P2;SDS_P1;SDS_P2;PMS_P1;PMS_P2;Temp;Humidity;BMP_temperature;BMP_pressure;BME280_temperature;BME280_humidity;BME280_pressure;Samples;Min_cycle;Max_cycle;Signal;HPM_P1;HPM_P2
2021/10/26 00:00:32;;;;;;;90.55;46.70;;;;;;;-0.04;100.00;99667.72;2080368;28;20228;-72
2021/10/26 00:01:33;;;;;;;89.60;47.40;;;;;;;-0.08;100.00;99672.59;2081092;28;20238;-72
2021/10/26 00:02:35;;;;;;;89.03;47.63;;;;;;;-0.12;100.00;99670.59;2081057;28;20223;-72
2021/10/26 00:03:38;;;;;;;83.63;45.13;;;;;;;-0.17;100.00;99675.69;2080901;28;20223;-72
2021/10/26 00:04:44;;;;;;;88.65;48.92;;;;;;;-0.20;100.00;99679.50;2080558;28;20231;-72
2021/10/26 00:05:47;;;;;;;98.53;50.08;;;;;;;-0.23;100.00;99679.13;2081032;28;20219;-72
2021/10/26 00:06:52;;;;;;;96.93;50.25;;;;;;;-0.25;100.00;99676.72;2079463;28;20614;-72
2021/10/26 00:07:56;;;;;;;104.07;52.92;;;;;;;-0.25;100.00;99666.22;2071849;28;20234;-72
2021/10/26 00:08:58;;;;;;;99.18;50.42;;;;;;;-0.22;100.00;99676.28;2072530;28;20232;-72
2021/10/26 00:09:59;;;;;;;98.28;49.90;;;;;;;-0.20;100.00;99673.47;2072025;28;20224;-72
2021/10/26 00:11:05;;;;;;;86.25;46.30;;;;;;;-0.22;100.00;99667.63;2071492;28;20278;-72
2021/10/26 00:12:07;;;;;;;99.97;50.35;;;;;;;-0.24;100.00;99669.66;2080423;28;20219;-72
2021/10/26 00:13:10;;;;;;;89.80;47.78;;;;;;;-0.26;100.00;99680.38;2080458;28;20227;-72
2021/10/26 00:14:12;;;;;;;91.10;48.60;;;;;;;-0.29;100.00;99678.94;2080905;28;20733;-72
2021/10/26 00:15:14;;;;;;;95.43;50.03;;;;;;;-0.30;100.00;99677.34;2079489;28;20226;-72
2021/10/26 00:16:15;;;;;;;94.90;49.38;;;;;;;-0.31;100.00;99669.69;2080122;28;20222;-72
2021/10/26 00:17:20;;;;;;;99.78;50.35;;;;;;;-0.35;100.00;99669.31;2080349;28;20622;-72
2021/10/26 00:18:23;;;;;;;90.30;48.78;;;;;;;-0.37;100.00;99660.03;2079107;28;20246;-72
2021/10/26 00:19:28;;;;;;;87.53;48.15;;;;;;;-0.39;100.00;99665.50;2080071;28;20274;-72
2021/10/26 00:20:32;;;;;;;97.18;50.03;;;;;;;-0.41;100.00;99669.34;2080138;28;20224;-72
2021/10/26 00:21:41;;;;;;;83.72;48.63;;;;;;;-0.44;100.00;99667.13;2080077;28;20315;-72
2021/10/26 00:22:43;;;;;;;89.72;49.20;;;;;;;-0.46;100.00;99664.72;2079376;28;20700;-72
2021/10/26 00:23:47;;;;;;;93.80;49.58;;;;;;;-0.48;100.00;99664.13;2079475;28;20234;-72
2021/10/26 00:24:49;;;;;;;86.40;48.47;;;;;;;-0.52;100.00;99659.50;2088279;28;20215;-72
2021/10/26 00:25:55;;;;;;;95.80;49.55;;;;;;;-0.54;100.00;99659.72;2080231;28;20700;-72
2021/10/26 00:26:59;;;;;;;91.53;49.00;;;;;;;-0.55;100.00;99659.91;2079362;28;20227;-72
2021/10/26 00:28:02;;;;;;;96.28;48.25;;;;;;;-0.58;100.00;99664.56;2071418;28;20224;-72
2021/10/26 00:29:05;;;;;;;92.15;49.45;;;;;;;-0.61;100.00;99662.38;2072029;28;20274;-72
2021/10/26 00:30:09;;;;;;;90.65;48.38;;;;;;;-0.61;100.00;99651.06;2080098;28;20224;-72
2021/10/26 00:31:10;;;;;;;97.70;52.28;;;;;;;-0.62;100.00;99647.66;2080420;28;20700;-72
2021/10/26 00:32:14;;;;;;;94.47;50.08;;;;;;;-0.62;100.00;99650.25;2080116;28;20228;-72
2021/10/26 00:33:17;;;;;;;89.38;48.45;;;;;;;-0.64;100.00;99647.06;2080202;28;20224;-73
2021/10/26 00:34:21;;;;;;;92.03;49.53;;;;;;;-0.59;100.00;99657.72;2080826;28;20325;-73
2021/10/26 00:35:27;;;;;;;94.03;50.30;;;;;;;-0.50;100.00;99660.13;2079329;28;20227;-72
2021/10/26 00:36:36;;;;;;;104.85;53.20;;;;;;;-0.41;100.00;99661.47;2072605;28;20251;-73
2021/10/26 00:37:37;;;;;;;111.15;54.88;;;;;;;-0.30;100.00;99658.19;2072049;28;20228;-72
2021/10/26 00:38:40;;;;;;;108.85;54.20;;;;;;;-0.22;100.00;99662.38;2080056;28;20658;-73
2021/10/26 00:39:44;;;;;;;109.35;54.67;;;;;;;-0.13;100.00;99658.50;2080752;28;20246;-72
2021/10/26 00:40:48;;;;;;;119.07;56.42;;;;;;;-0.12;100.00;99652.22;2087263;28;20223;-73
2021/10/26 00:41:50;;;;;;;100.50;53.10;;;;;;;-0.13;100.00;99651.44;2078992;28;20587;-73
2021/10/26 00:42:55;;;;;;;94.05;49.80;;;;;;;-0.15;100.00;99656.09;2080278;28;20226;-73
2021/10/26 00:43:57;;;;;;;91.30;49.90;;;;;;;-0.20;100.00;99653.28;2079241;28;20238;-72
2021/10/26 00:45:01;;;;;;;86.90;48.05;;;;;;;-0.20;100.00;99662.97;2080140;28;20298;-73
2021/10/26 00:46:02;;;;;;;82.75;48.15;;;;;;;-0.24;100.00;99651.31;2079970;28;20284;-73
2021/10/26 00:47:06;;;;;;;93.47;49.60;;;;;;;-0.29;100.00;99651.91;2071885;28;20227;-72
2021/10/26 00:48:10;;;;;;;94.53;49.95;;;;;;;-0.33;100.00;99654.19;2071148;28;20266;-73
2021/10/26 00:49:14;;;;;;;100.35;50.83;;;;;;;-0.36;100.00;99664.25;2071729;28;20235;-73
2021/10/26 00:50:17;;;;;;;92.20;50.17;;;;;;;-0.40;100.00;99658.66;2071820;28;20644;-72
2021/10/26 00:51:20;;;;;;;94.70;50.45;;;;;;;-0.42;100.00;99652.00;2071929;28;20252;-72
2021/10/26 00:52:22;;;;;;;94.13;49.30;;;;;;;-0.44;100.00;99651.41;2071949;28;20299;-73
2021/10/26 00:53:27;;;;;;;90.90;46.63;;;;;;;-0.46;100.00;99643.75;2071702;28;20224;-73
2021/10/26 00:54:30;;;;;;;94.63;49.58;;;;;;;-0.50;100.00;99639.94;2072020;28;20674;-73
2021/10/26 00:55:46;;;;;;;85.20;47.80;;;;;;;-0.50;100.00;99653.06;2080613;28;20231;-73
2021/10/26 00:56:51;;;;;;;86.13;47.03;;;;;;;-0.53;100.00;99644.78;2079479;28;20227;-72
2021/10/26 00:57:56;;;;;;;83.28;45.88;;;;;;;-0.57;100.00;99647.03;2071458;28;20232;-73
2021/10/26 00:59:02;;;;;;;92.68;47.08;;;;;;;-0.60;100.00;99648.25;2071927;28;20215;-72
2021/10/26 01:00:13;;;;;;;88.47;47.38;;;;;;;-0.70;100.00;99642.63;2072562;28;20227;-73
2021/10/26 01:01:17;;;;;;;81.05;45.92;;;;;;;-0.73;100.00;99648.31;2079992;28;20291;-72
2021/10/26 01:02:20;;;;;;;101.85;50.05;;;;;;;-0.77;100.00;99649.75;2079429;28;20304;-73
2021/10/26 01:03:23;;;;;;;94.95;51.25;;;;;;;-0.80;100.00;99646.72;2071827;28;20285;-72
2021/10/26 01:04:34;;;;;;;101.50;51.42;;;;;;;-0.82;100.00;99640.88;2072252;28;20228;-72
2021/10/26 01:05:37;;;;;;;95.22;51.67;;;;;;;-0.81;100.00;99650.34;2079753;28;20230;-72
2021/10/26 01:06:39;;;;;;;103.55;53.22;;;;;;;-0.83;100.00;99647.94;2087606;28;20743;-72
2021/10/26 01:07:41;;;;;;;109.30;53.90;;;;;;;-0.80;100.00;99642.28;2079569;28;20235;-72
2021/10/26 01:08:51;;;;;;;110.82;56.38;;;;;;;-0.78;100.00;99652.53;2079811;28;20238;-72
2021/10/26 01:09:57;;;;;;;108.20;54.00;;;;;;;-0.76;100.00;99646.13;2071704;28;20311;-72
2021/10/26 01:11:02;;;;;;;96.53;49.15;;;;;;;-0.78;100.00;99645.53;2078872;28;20231;-73
2021/10/26 01:12:06;;;;;;;93.32;48.88;;;;;;;-0.78;100.00;99642.06;2079298;28;20243;-72
2021/10/26 01:13:08;;;;;;;92.80;48.47;;;;;;;-0.79;100.00;99643.09;2079520;28;20245;-72
2021/10/26 01:14:11;;;;;;;90.97;48.00;;;;;;;-0.81;100.00;99651.16;2079872;28;20601;-72
2021/10/26 01:15:17;;;;;;;92.70;48.85;;;;;;;-0.84;100.00;99646.34;2079794;28;20334;-72
2021/10/26 01:16:24;;;;;;;103.18;50.47;;;;;;;-0.84;100.00;99650.78;2079810;28;20227;-73
2021/10/26 01:17:32;;;;;;;91.75;48.85;;;;;;;-0.84;100.00;99650.78;2086665;28;20634;-73
2021/10/26 01:18:37;;;;;;;84.88;48.50;;;;;;;-0.87;100.00;99652.81;2079360;28;20236;-72
2021/10/26 01:19:48;;;;;;;105.05;49.90;;;;;;;-0.87;100.00;99651.97;2079796;28;20721;-72
2021/10/26 01:20:52;;;;;;;96.82;49.63;;;;;;;-0.90;100.00;99650.59;2079570;28;20231;-72
2021/10/26 01:21:54;;;;;;;94.10;48.63;;;;;;;-0.92;100.00;99652.59;2079371;28;20753;-72
2021/10/26 01:22:59;;;;;;;127.93;61.15;;;;;;;-0.81;100.00;99656.41;2087968;28;20234;-72
2021/10/26 01:24:05;;;;;;;150.63;64.97;;;;;;;-0.74;100.00;99651.94;2079336;28;20223;-72
2021/10/26 01:25:10;;;;;;;139.48;65.72;;;;;;;-0.66;100.00;99643.84;2071242;28;20289;-72
2021/10/26 01:26:16;;;;;;;148.30;66.93;;;;;;;-0.61;100.00;99644.03;2080177;28;20235;-72
2021/10/26 01:27:22;;;;;;;134.55;63.78;;;;;;;-0.58;100.00;99648.84;2079513;28;20246;-72
2021/10/26 01:28:28;;;;;;;98.90;53.08;;;;;;;-0.58;100.00;99650.66;2080060;28;20262;-72
2021/10/26 01:29:29;;;;;;;113.95;57.42;;;;;;;-0.61;100.00;99646.66;2079166;28;20215;-72
2021/10/26 01:30:35;;;;;;;94.30;51.38;;;;;;;-0.61;100.00;99648.44;2079842;28;20250;-72
2021/10/26 01:32:01;;;;;;;94.40;50.85;;;;;;;-0.64;100.00;99646.25;2070398;28;20224;-72
2021/10/26 01:33:16;;;;;;;120.72;58.95;;;;;;;-0.65;100.00;99650.69;2079360;28;20250;-72
2021/10/26 01:34:32;;;;;;;122.97;60.88;;;;;;;-0.66;100.00;99650.91;2073007;28;20724;-72
2021/10/26 01:35:37;;;;;;;104.30;53.38;;;;;;;-0.66;100.00;99649.09;2079615;28;20258;-72
2021/10/26 01:36:38;;;;;;;103.38;53.03;;;;;;;-0.67;100.00;99644.88;2079172;28;20231;-72
2021/10/26 01:37:43;;;;;;;94.90;51.80;;;;;;;-0.69;100.00;99644.28;2071432;28;20230;-72
2021/10/26 01:38:46;;;;;;;94.25;49.53;;;;;;;-0.74;100.00;99643.28;2071967;28;20232;-72
2021/10/26 01:39:55;;;;;;;111.95;54.30;;;;;;;-0.76;100.00;99647.94;2079008;28;20223;-72
2021/10/26 01:40:58;;;;;;;97.90;50.33;;;;;;;-0.78;100.00;99645.53;2079013;28;20239;-72
2021/10/26 01:42:01;;;;;;;96.72;50.47;;;;;;;-0.79;100.00;99650.94;2079122;28;20215;-73
2021/10/26 01:43:04;;;;;;;125.18;58.10;;;;;;;-0.81;100.00;99652.97;2079585;28;20611;-72
2021/10/26 01:44:08;;;;;;;123.20;58.28;;;;;;;-0.79;100.00;99654.38;2071958;28;20224;-72
2021/10/26 01:45:15;;;;;;;111.55;58.53;;;;;;;-0.76;100.00;99658.41;2078709;28;20673;-72
2021/10/26 01:46:22;;;;;;;101.95;49.42;;;;;;;-0.74;100.00;99657.19;2078775;28;20766;-72
2021/10/26 01:47:26;;;;;;;98.05;51.05;;;;;;;-0.78;100.00;99661.25;2079145;28;20575;-73
2021/10/26 01:48:34;;;;;;;98.90;49.08;;;;;;;-0.80;100.00;99654.56;2078974;28;20689;-72
2021/10/26 01:49:37;;;;;;;93.97;51.40;;;;;;;-0.84;100.00;99651.59;2079503;28;20223;-72
2021/10/26 01:50:43;;;;;;;102.28;53.05;;;;;;;-0.86;100.00;99649.16;2079552;28;20223;-73
2021/10/26 01:51:46;;;;;;;106.53;53.72;;;;;;;-0.84;100.00;99650.78;2071921;28;20232;-72
2021/10/26 01:52:53;;;;;;;107.32;52.97;;;;;;;-0.85;100.00;99649.97;2071756;28;20224;-72
2021/10/26 01:53:59;;;;;;;106.43;53.63;;;;;;;-0.83;100.00;99660.25;2071842;28;20325;-73
2021/10/26 01:55:02;;;;;;;101.93;51.47;;;;;;;-0.83;100.00;99653.19;2080066;28;20216;-73
2021/10/26 01:56:07;;;;;;;104.13;52.75;;;;;;;-0.82;100.00;99654.00;2087042;28;20222;-72
2021/10/26 01:57:36;;;;;;;95.07;48.55;;;;;;;-0.80;100.00;99662.44;2079967;28;20227;-72
2021/10/26 01:58:54;;;;;;;94.90;49.28;;;;;;;-0.77;100.00;99660.22;2079048;28;20241;-72
2021/10/26 01:59:58;;;;;;;91.60;49.13;;;;;;;-0.76;100.00;99663.66;2071797;28;20231;-72
2021/10/26 02:01:01;;;;;;;93.18;49.75;;;;;;;-0.76;100.00;99659.22;2071526;28;20227;-72
2021/10/26 02:02:03;;;;;;;87.28;49.40;;;;;;;-0.78;100.00;99650.75;2078651;28;20292;-72
2021/10/26 02:03:10;;;;;;;99.70;52.38;;;;;;;-0.77;100.00;99657.59;2071721;28;20662;-72
2021/10/26 02:04:11;;;;;;;94.68;50.25;;;;;;;-0.81;100.00;99651.16;2071523;28;20610;-72
2021/10/26 02:05:17;;;;;;;101.10;52.15;;;;;;;-0.85;100.00;99652.59;2071373;28;20232;-72
2021/10/26 02:06:21;;;;;;;110.88;51.80;;;;;;;-0.90;100.00;99653.19;2072001;28;20226;-72
2021/10/26 02:07:25;;;;;;;98.13;51.25;;;;;;;-0.95;100.00;99653.03;2071080;28;20235;-73
2021/10/26 02:08:30;;;;;;;97.97;50.85;;;;;;;-0.95;100.00;99654.84;2079127;28;20319;-72
2021/10/26 02:09:34;;;;;;;93.22;50.70;;;;;;;-0.99;100.00;99653.63;2079432;28;20246;-72
2021/10/26 02:10:37;;;;;;;101.90;51.22;;;;;;;-1.04;100.00;99658.66;2079365;28;20247;-72
2021/10/26 02:11:40;;;;;;;99.75;51.38;;;;;;;-1.08;100.00;99655.66;2078944;28;20583;-72
2021/10/26 02:12:42;;;;;;;100.30;51.05;;;;;;;-1.10;100.00;99647.22;2079573;28;20235;-72
2021/10/26 02:13:46;;;;;;;102.65;51.33;;;;;;;-1.16;100.00;99648.84;2079461;28;20223;-72
2021/10/26 02:14:49;;;;;;;94.57;49.25;;;;;;;-1.17;100.00;99647.22;2087673;28;20235;-72
2021/10/26 02:15:54;;;;;;;101.35;51.35;;;;;;;-1.20;100.00;99650.28;2079053;28;20634;-73
2021/10/26 02:16:56;;;;;;;91.55;49.83;;;;;;;-1.21;100.00;99653.91;2078911;28;20610;-72
2021/10/26 02:18:00;;;;;;;94.28;51.58;;;;;;;-1.23;100.00;99650.66;2079131;28;20617;-72
2021/10/26 02:19:04;;;;;;;99.72;49.10;;;;;;;-1.25;100.00;99650.06;2079593;28;21141;-72
2021/10/26 02:20:09;;;;;;;91.40;49.85;;;;;;;-1.27;100.00;99652.09;2079442;28;20222;-72
2021/10/26 02:21:12;;;;;;;96.25;49.97;;;;;;;-1.27;100.00;99656.53;2079149;28;20319;-72
2021/10/26 02:22:18;;;;;;;90.88;48.83;;;;;;;-1.29;100.00;99648.88;2071407;28;20270;-72
2021/10/26 02:23:22;;;;;;;91.43;48.95;;;;;;;-1.30;100.00;99646.47;2071669;28;20220;-72
2021/10/26 02:24:27;;;;;;;89.47;49.58;;;;;;;-1.32;100.00;99651.09;2079464;28;20226;-72
2021/10/26 02:25:30;;;;;;;95.60;48.63;;;;;;;-1.32;100.00;99656.31;2079357;28;20231;-73
2021/10/26 02:26:34;;;;;;;93.00;49.55;;;;;;;-1.33;100.00;99659.94;2071343;28;20249;-72
2021/10/26 02:27:37;;;;;;;95.22;49.35;;;;;;;-1.31;100.00;99669.19;2071631;28;20701;-72
2021/10/26 02:28:43;;;;;;;92.75;50.20;;;;;;;-1.29;100.00;99664.59;2071150;28;20224;-72
2021/10/26 02:29:47;;;;;;;105.90;52.42;;;;;;;-1.27;100.00;99665.19;2071209;28;20259;-72
2021/10/26 02:30:50;;;;;;;99.93;51.47;;;;;;;-1.23;100.00;99661.13;2071588;28;20222;-72
2021/10/26 02:31:54;;;;;;;93.45;52.85;;;;;;;-1.19;100.00;99659.72;2078813;28;20276;-73
2021/10/26 02:32:56;;;;;;;108.82;54.40;;;;;;;-1.10;100.00;99665.56;2078943;28;20234;-72
2021/10/26 02:33:59;;;;;;;98.13;52.50;;;;;;;-1.04;100.00;99669.16;2079527;28;20284;-73
2021/10/26 02:35:03;;;;;;;92.65;47.03;;;;;;;-1.00;100.00;99665.13;2079067;28;20563;-72
2021/10/26 02:36:07;;;;;;;95.22;50.00;;;;;;;-1.00;100.00;99665.13;2078604;28;20231;-72
2021/10/26 02:37:12;;;;;;;93.15;48.65;;;;;;;-1.01;100.00;99660.91;2078752;28;20227;-72
2021/10/26 02:38:18;;;;;;;83.13;47.88;;;;;;;-1.04;100.00;99651.66;2079023;28;20621;-72
2021/10/26 02:39:21;;;;;;;91.72;49.85;;;;;;;-1.02;100.00;99667.16;2071448;28;20266;-72
2021/10/26 02:40:23;;;;;;;99.00;49.97;;;;;;;-1.06;100.00;99652.84;2070964;28;20307;-73
2021/10/26 02:41:30;;;;;;;87.15;47.03;;;;;;;-1.09;100.00;99655.88;2071519;28;20232;-72
2021/10/26 02:42:33;;;;;;;81.50;45.58;;;;;;;-1.12;100.00;99656.31;2072959;28;20306;-72
2021/10/26 02:43:38;;;;;;;84.90;47.95;;;;;;;-1.16;100.00;99664.56;2072517;28;20223;-72
2021/10/26 02:44:42;;;;;;;91.93;47.97;;;;;;;-1.18;100.00;99655.28;2072554;28;20228;-72
2021/10/26 02:45:47;;;;;;;91.63;47.85;;;;;;;-1.22;100.00;99654.88;2073185;28;20228;-72
2021/10/26 02:46:49;;;;;;;85.70;46.78;;;;;;;-1.21;100.00;99651.28;2073220;28;20220;-72
2021/10/26 02:47:53;;;;;;;95.57;47.55;;;;;;;-1.22;100.00;99657.50;2072896;28;20243;-72
2021/10/26 02:48:56;;;;;;;84.38;47.60;;;;;;;-1.22;100.00;99654.88;2080955;28;20293;-72
2021/10/26 02:49:59;;;;;;;74.38;44.55;;;;;;;-1.22;100.00;99654.09;2088968;28;20313;-72
2021/10/26 02:51:02;;;;;;;70.78;42.92;;;;;;;-1.21;100.00;99651.28;2080568;28;20299;-72
2021/10/26 02:52:06;;;;;;;73.47;42.97;;;;;;;-1.15;100.00;99655.69;2072401;28;20233;-72
2021/10/26 02:53:11;;;;;;;76.80;42.72;;;;;;;-1.12;100.00;99664.16;2080875;28;20278;-72
2021/10/26 02:54:18;;;;;;;79.82;44.05;;;;;;;-1.11;100.00;99656.09;2080876;28;20755;-72
2021/10/26 02:55:22;;;;;;;84.22;45.55;;;;;;;-1.13;100.00;99652.84;2072552;28;20224;-72
2021/10/26 02:56:26;;;;;;;82.00;45.47;;;;;;;-1.10;100.00;99654.28;2072320;28;20239;-72
2021/10/26 02:57:30;;;;;;;86.82;46.55;;;;;;;-1.09;100.00;99664.53;2072042;28;20232;-72
2021/10/26 02:58:36;;;;;;;81.35;45.58;;;;;;;-1.13;100.00;99652.84;2073215;28;20227;-72
2021/10/26 02:59:43;;;;;;;84.55;44.47;;;;;;;-1.17;100.00;99654.28;2072198;28;20259;-72
2021/10/26 03:00:47;;;;;;;78.63;44.30;;;;;;;-1.14;100.00;99659.09;2073206;28;20303;-72
2021/10/26 03:01:50;;;;;;;80.60;45.42;;;;;;;-1.14;100.00;99661.72;2073267;28;20371;-72
2021/10/26 03:02:54;;;;;;;70.00;43.50;;;;;;;-1.17;100.00;99656.91;2072790;28;20227;-73
2021/10/26 03:04:01;;;;;;;81.10;44.70;;;;;;;-1.17;100.00;99664.75;2071800;28;20578;-72
2021/10/26 03:05:05;;;;;;;79.50;44.45;;;;;;;-1.20;100.00;99658.13;2072459;28;20220;-72
2021/10/26 03:06:10;;;;;;;80.40;44.95;;;;;;;-1.20;100.00;99662.56;2072682;28;20232;-73
2021/10/26 03:07:13;;;;;;;77.07;45.58;;;;;;;-1.24;100.00;99663.97;2079949;28;20238;-73
2021/10/26 03:08:16;;;;;;;78.93;44.75;;;;;;;-1.26;100.00;99664.16;2080922;28;20250;-73
2021/10/26 03:09:22;;;;;;;74.28;44.50;;;;;;;-1.26;100.00;99658.94;2080844;28;20215;-72
2021/10/26 03:10:27;;;;;;;83.97;44.47;;;;;;;-1.28;100.00;99657.53;2080444;28;20652;-73
2021/10/26 03:11:32;;;;;;;80.30;44.95;;;;;;;-1.30;100.00;99662.97;2080286;28;20219;-73
2021/10/26 03:12:39;;;;;;;82.05;45.40;;;;;;;-1.34;100.00;99661.75;2080706;28;20274;-73
2021/10/26 03:13:40;;;;;;;80.63;45.28;;;;;;;-1.35;100.00;99665.38;2072170;28;20682;-72
2021/10/26 03:14:45;;;;;;;82.85;44.20;;;;;;;-1.34;100.00;99667.00;2072023;28;20234;-72
2021/10/26 03:15:47;;;;;;;77.90;43.47;;;;;;;-1.35;100.00;99662.78;2080591;28;20651;-73
2021/10/26 03:16:52;;;;;;;80.85;44.88;;;;;;;-1.34;100.00;99667.00;2080761;28;20223;-73
2021/10/26 03:17:56;;;;;;;76.93;43.80;;;;;;;-1.41;100.00;99660.97;2072181;28;20228;-72
2021/10/26 03:19:04;;;;;;;77.32;44.20;;;;;;;-1.42;100.00;99677.66;2072295;28;20311;-72
2021/10/26 03:20:09;;;;;;;71.85;43.90;;;;;;;-1.42;100.00;99681.09;2073209;28;20266;-73
2021/10/26 03:21:14;;;;;;;81.00;44.83;;;;;;;-1.41;100.00;99687.13;2080533;28;20255;-72
2021/10/26 03:22:18;;;;;;;77.47;44.50;;;;;;;-1.42;100.00;99682.91;2080653;28;20226;-72
2021/10/26 03:23:21;;;;;;;79.13;44.53;;;;;;;-1.41;100.00;99687.13;2080881;28;20223;-72
2021/10/26 03:24:24;;;;;;;79.00;44.70;;;;;;;-1.42;100.00;99685.53;2081033;28;20281;-72
2021/10/26 03:25:31;;;;;;;79.18;45.83;;;;;;;-1.43;100.00;99689.97;2080652;28;20234;-73
2021/10/26 03:26:35;;;;;;;87.95;47.55;;;;;;;-1.41;100.00;99692.38;2073124;28;20282;-73
2021/10/26 03:27:43;;;;;;;89.63;48.72;;;;;;;-1.42;100.00;99696.78;2072948;28;20252;-73
2021/10/26 03:28:51;;;;;;;91.03;49.88;;;;;;;-1.43;100.00;99683.91;2073783;28;20240;-74
2021/10/26 03:29:54;;;;;;;88.82;48.08;;;;;;;-1.44;100.00;99687.53;2072137;28;20590;-73
2021/10/26 03:31:03;;;;;;;104.35;52.28;;;;;;;-1.47;100.00;99688.75;2072858;28;20239;-73
2021/10/26 03:32:34;;;;;;;91.88;51.08;;;;;;;-1.45;100.00;99691.19;2077210;28;20627;-73
2021/10/26 03:34:00;;;;;;;104.03;54.22;;;;;;;-1.44;100.00;99682.31;2080885;28;20231;-73
2021/10/26 03:35:04;;;;;;;107.43;52.25;;;;;;;-1.43;100.00;99683.91;2080055;28;20239;-73
2021/10/26 03:36:12;;;;;;;100.97;53.17;;;;;;;-1.46;100.00;99679.09;2079417;28;20231;-73
2021/10/26 03:37:17;;;;;;;107.70;52.70;;;;;;;-1.46;100.00;99684.34;2079991;28;20224;-73
2021/10/26 03:38:19;;;;;;;90.47;49.53;;;;;;;-1.46;100.00;99687.75;2072752;28;20607;-74
2021/10/26 03:39:21;;;;;;;147.00;57.17;;;;;;;-1.42;100.00;99690.75;2072599;28;20569;-72
2021/10/26 03:40:27;;;;;;;135.43;58.20;;;;;;;-1.43;100.00;99689.16;2072022;28;20224;-72
2021/10/26 03:41:32;;;;;;;116.70;60.38;;;;;;;-1.40;100.00;99690.56;2080760;28;20223;-72
2021/10/26 03:42:40;;;;;;;118.55;59.63;;;;;;;-1.39;100.00;99685.13;2079629;28;20291;-73
2021/10/26 03:43:48;;;;;;;121.72;59.50;;;;;;;-1.39;100.00;99682.53;2081064;28;20223;-72
2021/10/26 03:44:50;;;;;;;124.30;61.03;;;;;;;-1.42;100.00;99681.09;2080079;28;20226;-73
2021/10/26 03:45:55;;;;;;;127.38;59.28;;;;;;;-1.41;100.00;99684.50;2072445;28;20669;-73
2021/10/26 03:46:59;;;;;;;112.38;56.75;;;;;;;-1.37;100.00;99696.19;2080241;28;20273;-72
2021/10/26 03:48:02;;;;;;;108.15;56.22;;;;;;;-1.36;100.00;99689.97;2080422;28;20227;-72
2021/10/26 03:49:06;;;;;;;109.93;58.05;;;;;;;-1.36;100.00;99689.97;2072433;28;20569;-73
2021/10/26 03:50:11;;;;;;;115.00;57.50;;;;;;;-1.37;100.00;99683.13;2080371;28;20277;-74
2021/10/26 03:51:17;;;;;;;127.93;59.30;;;;;;;-1.34;100.00;99682.69;2079940;28;20290;-74
2021/10/26 03:52:21;;;;;;;119.78;59.67;;;;;;;-1.35;100.00;99680.28;2072271;28;20231;-74
2021/10/26 03:53:23;;;;;;;112.50;58.20;;;;;;;-1.37;100.00;99683.13;2080092;28;20234;-74
2021/10/26 03:54:28;;;;;;;115.40;61.05;;;;;;;-1.35;100.00;99678.47;2080305;28;20301;-74
2021/10/26 03:55:34;;;;;;;126.50;61.30;;;;;;;-1.34;100.00;99682.69;2072230;28;20232;-74
2021/10/26 03:56:40;;;;;;;110.18;57.10;;;;;;;-1.32;100.00;99678.06;2072899;28;20236;-74
2021/10/26 03:57:46;;;;;;;110.50;58.08;;;;;;;-1.38;100.00;99676.28;2080637;28;20681;-73
2021/10/26 03:58:53;;;;;;;111.55;56.30;;;;;;;-1.38;100.00;99675.47;2080375;28;20323;-74
2021/10/26 03:59:58;;;;;;;106.63;55.88;;;;;;;-1.43;100.00;99682.09;2072568;28;20615;-74
2021/10/26 04:01:00;;;;;;;106.47;55.17;;;;;;;-1.43;100.00;99678.69;2071871;28;20219;-74
2021/10/26 04:02:10;;;;;;;115.18;54.85;;;;;;;-1.42;100.00;99686.31;2072169;28;20311;-74
2021/10/26 04:03:14;;;;;;;109.65;54.40;;;;;;;-1.40;100.00;99682.69;2072003;28;20283;-74
2021/10/26 04:04:17;;;;;;;107.30;58.15;;;;;;;-1.36;100.00;99679.50;2080433;28;20313;-74
2021/10/26 04:05:36;;;;;;;109.07;56.72;;;;;;;-1.36;100.00;99683.91;2081062;28;20231;-74
2021/10/26 04:06:39;;;;;;;109.53;56.97;;;;;;;-1.33;100.00;99683.50;2079248;28;20677;-74
2021/10/26 04:07:46;;;;;;;105.68;58.03;;;;;;;-1.33;100.00;99678.28;2080277;28;20232;-74
2021/10/26 04:08:54;;;;;;;112.32;55.58;;;;;;;-1.36;100.00;99687.34;2080698;28;20655;-74
2021/10/26 04:10:04;;;;;;;109.40;57.78;;;;;;;-1.36;100.00;99684.72;2079828;28;20798;-74
2021/10/26 04:11:17;;;;;;;103.20;55.30;;;;;;;-1.38;100.00;99675.47;2079155;28;20234;-74
2021/10/26 04:12:26;;;;;;;114.80;52.85;;;;;;;-1.42;100.00;99682.91;2081080;28;20235;-74
2021/10/26 04:13:33;;;;;;;108.15;54.33;;;;;;;-1.47;100.00;99680.91;2079888;28;20658;-74
2021/10/26 04:14:36;;;;;;;99.63;52.58;;;;;;;-1.51;100.00;99682.31;2072408;28;20220;-74
2021/10/26 04:15:46;;;;;;;109.97;52.83;;;;;;;-1.53;100.00;99683.53;2079393;28;20573;-74
2021/10/26 04:16:49;;;;;;;97.78;52.92;;;;;;;-1.57;100.00;99682.31;2080313;28;20220;-74
2021/10/26 04:17:55;;;;;;;103.93;51.55;;;;;;;-1.59;100.00;99684.31;2080357;28;20223;-74
2021/10/26 04:19:01;;;;;;;103.63;51.95;;;;;;;-1.63;100.00;99677.91;2071343;28;20275;-74
2021/10/26 04:20:03;;;;;;;98.55;50.40;;;;;;;-1.65;100.00;99680.72;2088019;28;20215;-74
2021/10/26 04:21:09;;;;;;;96.90;49.25;;;;;;;-1.68;100.00;99677.69;2079879;28;20277;-74
2021/10/26 04:22:20;;;;;;;88.97;49.50;;;;;;;-1.67;100.00;99676.66;2081327;28;20220;-74
2021/10/26 04:23:26;;;;;;;97.57;51.80;;;;;;;-1.63;100.00;99675.28;2088294;28;20238;-74
2021/10/26 04:24:29;;;;;;;92.60;50.17;;;;;;;-1.62;100.00;99679.50;2079706;28;20293;-73
2021/10/26 04:25:34;;;;;;;100.60;49.85;;;;;;;-1.59;100.00;99673.84;2080329;28;20661;-74
2021/10/26 04:26:43;;;;;;;97.75;50.35;;;;;;;-1.63;100.00;99677.91;2080150;28;20604;-74
2021/10/26 04:27:45;;;;;;;94.43;50.08;;;;;;;-1.66;100.00;99679.09;2079961;28;20242;-74
2021/10/26 04:28:48;;;;;;;97.13;50.95;;;;;;;-1.69;100.00;99681.31;2088479;28;20272;-74
2021/10/26 04:29:55;;;;;;;82.72;46.28;;;;;;;-1.71;100.00;99677.09;2080067;28;20219;-74
2021/10/26 04:31:02;;;;;;;84.28;46.83;;;;;;;-1.73;100.00;99673.06;2072311;28;20235;-74
2021/10/26 04:32:06;;;;;;;99.40;50.72;;;;;;;-1.75;100.00;99667.22;2072667;28;20223;-74
2021/10/26 04:33:11;;;;;;;94.35;49.05;;;;;;;-1.75;100.00;99672.44;2071898;28;20698;-74
2021/10/26 04:34:15;;;;;;;101.93;50.00;;;;;;;-1.76;100.00;99668.22;2072320;28;20258;-74
2021/10/26 04:35:21;;;;;;;95.15;50.95;;;;;;;-1.78;100.00;99676.28;2072274;28;20328;-73
2021/10/26 04:36:23;;;;;;;99.88;50.35;;;;;;;-1.79;100.00;99679.91;2079934;28;20293;-73
2021/10/26 04:37:32;;;;;;;99.85;51.05;;;;;;;-1.80;100.00;99667.81;2079950;28;20235;-73
2021/10/26 04:38:38;;;;;;;89.68;48.20;;;;;;;-1.81;100.00;99670.66;2072592;28;20231;-73
2021/10/26 04:39:46;;;;;;;94.47;49.17;;;;;;;-1.81;100.00;99673.25;2072253;28;20224;-73
2021/10/26 04:40:48;;;;;;;110.20;51.85;;;;;;;-1.79;100.00;99677.28;2072677;28;20220;-74
2021/10/26 04:42:00;;;;;;;93.75;50.35;;;;;;;-1.81;100.00;99671.44;2072152;28;20231;-74
2021/10/26 04:43:03;;;;;;;91.53;50.58;;;;;;;-1.81;100.00;99668.84;2072353;28;20220;-74
2021/10/26 04:44:07;;;;;;;100.80;52.13;;;;;;;-1.79;100.00;99681.72;2080127;28;20230;-74
2021/10/26 04:45:13;;;;;;;93.43;50.58;;;;;;;-1.81;100.00;99681.09;2079407;28;20231;-74
2021/10/26 04:46:17;;;;;;;107.38;53.67;;;;;;;-1.80;100.00;99693.97;2072338;28;20223;-74
2021/10/26 04:47:23;;;;;;;102.93;53.55;;;;;;;-1.81;100.00;99681.91;2072086;28;20231;-74
2021/10/26 04:48:28;;;;;;;104.68;54.95;;;;;;;-1.81;100.00;99687.13;2071576;28;20240;-74
2021/10/26 04:49:29;;;;;;;100.97;53.83;;;;;;;-1.82;100.00;99688.16;2071824;28;20285;-74
2021/10/26 04:50:34;;;;;;;98.27;51.83;;;;;;;-1.81;100.00;99681.91;2071767;28;20231;-74
2021/10/26 04:51:38;;;;;;;96.63;52.60;;;;;;;-1.76;100.00;99683.91;2080495;28;20559;-74
2021/10/26 04:52:46;;;;;;;96.45;50.90;;;;;;;-1.76;100.00;99689.13;2078509;28;20234;-73
2021/10/26 04:53:51;;;;;;;96.22;50.22;;;;;;;-1.74;100.00;99687.97;2072344;28;20678;-74
2021/10/26 04:54:57;;;;;;;96.75;51.40;;;;;;;-1.72;100.00;99683.31;2071840;28;20670;-74